sensor_id;sensor_type;location;lat;lon;timestamp;pressure;altitude;pressure_sealevel;temperature;humidity
68994;BME280;56054;50.968;5.816;2023-08-17T00:01:06;101037.41;;;21.37;97.47
68994;BME280;56054;50.968;5.816;2023-08-17T00:04:13;101041.78;;;21.35;97.49
68994;BME280;56054;50.968;5.816;2023-08-17T00:07:20;101043.72;;;21.41;96.92
68994;BME280;56054;50.968;5.816;2023-08-17T00:10:28;101040.38;;;21.50;96.22
68994;BME280;56054;50.968;5.816;2023-08-17T00:13:35;101052.75;;;21.16;97.37
68994;BME280;56054;50.968;5.816;2023-08-17T00:16:42;101044.34;;;21.32;97.08
68994;BME280;56054;50.968;5.816;2023-08-17T00:19:49;101050.78;;;21.42;96.60
68994;BME280;56054;50.968;5.816;2023-08-17T00:22:56;101046.75;;;21.23;97.29
68994;BME280;56054;50.968;5.816;2023-08-17T00:26:05;101043.31;;;21.26;97.31
68994;BME280;56054;50.968;5.816;2023-08-17T00:29:12;101047.63;;;21.22;97.66
68994;BME280;56054;50.968;5.816;2023-08-17T00:32:19;101048.28;;;21.13;98.03
68994;BME280;56054;50.968;5.816;2023-08-17T00:35:26;101051.41;;;21.33;97.50
68994;BME280;56054;50.968;5.816;2023-08-17T00:38:33;101049.16;;;21.12;98.49
68994;BME280;56054;50.968;5.816;2023-08-17T00:41:43;101052.44;;;21.04;99.00
68994;BME280;56054;50.968;5.816;2023-08-17T00:44:50;101052.31;;;20.98;98.91
68994;BME280;56054;50.968;5.816;2023-08-17T00:47:58;101056.72;;;20.99;98.48
68994;BME280;56054;50.968;5.816;2023-08-17T00:51:05;101053.75;;;20.86;98.58
68994;BME280;56054;50.968;5.816;2023-08-17T00:54:12;101051.03;;;20.83;98.63
68994;BME280;56054;50.968;5.816;2023-08-17T00:57:20;101052.38;;;21.01;97.72
68994;BME280;56054;50.968;5.816;2023-08-17T01:00:29;101043.38;;;20.92;98.32
68994;BME280;56054;50.968;5.816;2023-08-17T01:03:39;101048.72;;;20.95;98.40
68994;BME280;56054;50.968;5.816;2023-08-17T01:06:48;101042.19;;;21.16;97.24
68994;BME280;56054;50.968;5.816;2023-08-17T01:09:55;101050.91;;;20.79;98.83
68994;BME280;56054;50.968;5.816;2023-08-17T01:13:08;101046.84;;;20.91;98.06
68994;BME280;56054;50.968;5.816;2023-08-17T01:16:23;101050.22;;;20.86;98.75
68994;BME280;56054;50.968;5.816;2023-08-17T01:19:32;101045.84;;;20.86;98.72
68994;BME280;56054;50.968;5.816;2023-08-17T01:22:41;101045.47;;;20.72;99.87
68994;BME280;56054;50.968;5.816;2023-08-17T01:25:48;101049.03;;;20.74;99.48
68994;BME280;56054;50.968;5.816;2023-08-17T01:28:55;101048.03;;;20.69;99.80
68994;BME280;56054;50.968;5.816;2023-08-17T01:32:26;101040.66;;;20.56;100.00
68994;BME280;56054;50.968;5.816;2023-08-17T01:39:17;101031.97;;;20.62;100.00
68994;BME280;56054;50.968;5.816;2023-08-17T01:42:27;101037.06;;;20.56;100.00
68994;BME280;56054;50.968;5.816;2023-08-17T01:45:34;101032.91;;;20.64;100.00
68994;BME280;56054;50.968;5.816;2023-08-17T01:48:42;101034.19;;;20.78;99.69
68994;BME280;56054;50.968;5.816;2023-08-17T01:51:49;101026.88;;;20.68;100.00
68994;BME280;56054;50.968;5.816;2023-08-17T01:54:56;101035.38;;;20.56;100.00
68994;BME280;56054;50.968;5.816;2023-08-17T01:58:03;101030.81;;;20.52;100.00
68994;BME280;56054;50.968;5.816;2023-08-17T02:01:10;101034.53;;;20.59;100.00
68994;BME280;56054;50.968;5.816;2023-08-17T02:04:17;101042.09;;;20.46;100.00
68994;BME280;56054;50.968;5.816;2023-08-17T02:07:24;101027.16;;;20.47;100.00
68994;BME280;56054;50.968;5.816;2023-08-17T02:10:32;101031.28;;;20.37;100.00
68994;BME280;56054;50.968;5.816;2023-08-17T02:13:38;101036.56;;;20.37;100.00
68994;BME280;56054;50.968;5.816;2023-08-17T02:16:45;101038.78;;;20.22;100.00
68994;BME280;56054;50.968;5.816;2023-08-17T02:19:59;101038.50;;;20.13;100.00
68994;BME280;56054;50.968;5.816;2023-08-17T02:23:06;101031.34;;;20.40;100.00
68994;BME280;56054;50.968;5.816;2023-08-17T02:26:13;101044.13;;;20.25;100.00
68994;BME280;56054;50.968;5.816;2023-08-17T02:29:20;101046.03;;;20.30;100.00
68994;BME280;56054;50.968;5.816;2023-08-17T02:32:27;101040.19;;;20.10;100.00
68994;BME280;56054;50.968;5.816;2023-08-17T02:35:34;101035.13;;;20.18;100.00
68994;BME280;56054;50.968;5.816;2023-08-17T02:38:41;101037.09;;;20.25;100.00
68994;BME280;56054;50.968;5.816;2023-08-17T02:41:48;101043.53;;;20.35;100.00
68994;BME280;56054;50.968;5.816;2023-08-17T02:44:55;101039.66;;;20.22;100.00
68994;BME280;56054;50.968;5.816;2023-08-17T02:48:03;101038.97;;;19.99;100.00
68994;BME280;56054;50.968;5.816;2023-08-17T02:51:10;101035.66;;;20.06;100.00
68994;BME280;56054;50.968;5.816;2023-08-17T02:54:17;101027.59;;;20.00;100.00
68994;BME280;56054;50.968;5.816;2023-08-17T02:57:24;101019.16;;;20.12;100.00
68994;BME280;56054;50.968;5.816;2023-08-17T03:00:32;101019.72;;;20.34;100.00
68994;BME280;56054;50.968;5.816;2023-08-17T03:03:39;101013.63;;;20.04;100.00
68994;BME280;56054;50.968;5.816;2023-08-17T03:06:46;101013.72;;;20.07;100.00
68994;BME280;56054;50.968;5.816;2023-08-17T03:09:55;101009.75;;;19.92;100.00
68994;BME280;56054;50.968;5.816;2023-08-17T03:13:02;101014.31;;;19.97;100.00
68994;BME280;56054;50.968;5.816;2023-08-17T03:16:10;101010.75;;;19.97;100.00
68994;BME280;56054;50.968;5.816;2023-08-17T03:19:17;101004.47;;;20.22;100.00
68994;BME280;56054;50.968;5.816;2023-08-17T03:22:24;101002.41;;;20.12;100.00
68994;BME280;56054;50.968;5.816;2023-08-17T03:25:32;101003.19;;;20.09;100.00
68994;BME280;56054;50.968;5.816;2023-08-17T03:28:38;101005.47;;;19.95;100.00
68994;BME280;56054;50.968;5.816;2023-08-17T03:31:45;101005.91;;;20.10;100.00
68994;BME280;56054;50.968;5.816;2023-08-17T03:34:52;101007.06;;;19.90;100.00
68994;BME280;56054;50.968;5.816;2023-08-17T03:37:59;100997.34;;;19.87;100.00
68994;BME280;56054;50.968;5.816;2023-08-17T03:41:07;101006.88;;;19.84;100.00
68994;BME280;56054;50.968;5.816;2023-08-17T03:44:15;101010.59;;;19.91;100.00
68994;BME280;56054;50.968;5.816;2023-08-17T03:47:22;101015.53;;;19.80;100.00
68994;BME280;56054;50.968;5.816;2023-08-17T03:50:29;101012.91;;;19.80;100.00
68994;BME280;56054;50.968;5.816;2023-08-17T03:53:36;101006.16;;;19.89;100.00
68994;BME280;56054;50.968;5.816;2023-08-17T03:56:43;101016.41;;;19.79;100.00
68994;BME280;56054;50.968;5.816;2023-08-17T03:59:50;101021.97;;;19.88;100.00
68994;BME280;56054;50.968;5.816;2023-08-17T04:02:57;101010.84;;;19.70;100.00
68994;BME280;56054;50.968;5.816;2023-08-17T04:06:05;101013.00;;;19.83;100.00
68994;BME280;56054;50.968;5.816;2023-08-17T04:09:12;101017.28;;;19.79;100.00
68994;BME280;56054;50.968;5.816;2023-08-17T04:12:19;101031.72;;;19.92;100.00
68994;BME280;56054;50.968;5.816;2023-08-17T04:15:26;101038.94;;;19.69;100.00
68994;BME280;56054;50.968;5.816;2023-08-17T04:18:33;101035.56;;;19.73;100.00
68994;BME280;56054;50.968;5.816;2023-08-17T04:21:40;101030.53;;;19.81;100.00
68994;BME280;56054;50.968;5.816;2023-08-17T04:24:47;101038.34;;;19.78;100.00
68994;BME280;56054;50.968;5.816;2023-08-17T04:27:57;101040.22;;;19.82;100.00
68994;BME280;56054;50.968;5.816;2023-08-17T04:31:09;101046.66;;;19.92;100.00
68994;BME280;56054;50.968;5.816;2023-08-17T04:34:16;101054.78;;;19.69;100.00
68994;BME280;56054;50.968;5.816;2023-08-17T04:37:23;101052.06;;;19.67;100.00
68994;BME280;56054;50.968;5.816;2023-08-17T04:40:30;101057.72;;;19.80;100.00
68994;BME280;56054;50.968;5.816;2023-08-17T04:43:37;101049.28;;;19.90;100.00
68994;BME280;56054;50.968;5.816;2023-08-17T04:46:46;101055.28;;;19.86;100.00
68994;BME280;56054;50.968;5.816;2023-08-17T04:49:53;101053.69;;;19.64;100.00
68994;BME280;56054;50.968;5.816;2023-08-17T04:53:00;101052.59;;;19.56;100.00
68994;BME280;56054;50.968;5.816;2023-08-17T04:56:08;101046.69;;;19.64;100.00
68994;BME280;56054;50.968;5.816;2023-08-17T04:59:16;101045.34;;;19.50;100.00
68994;BME280;56054;50.968;5.816;2023-08-17T05:02:23;101045.19;;;19.73;100.00
68994;BME280;56054;50.968;5.816;2023-08-17T05:05:30;101055.88;;;19.76;100.00
68994;BME280;56054;50.968;5.816;2023-08-17T05:08:41;101050.53;;;19.74;100.00
68994;BME280;56054;50.968;5.816;2023-08-17T05:11:48;101049.00;;;19.54;100.00
68994;BME280;56054;50.968;5.816;2023-08-17T05:14:55;101038.34;;;19.78;100.00
68994;BME280;56054;50.968;5.816;2023-08-17T05:18:02;101055.88;;;19.49;100.00
68994;BME280;56054;50.968;5.816;2023-08-17T05:21:11;101055.88;;;19.77;100.00
68994;BME280;56054;50.968;5.816;2023-08-17T05:24:17;101055.94;;;19.79;100.00
68994;BME280;56054;50.968;5.816;2023-08-17T05:27:50;101061.22;;;19.79;100.00
68994;BME280;56054;50.968;5.816;2023-08-17T05:31:04;101055.88;;;19.76;100.00
68994;BME280;56054;50.968;5.816;2023-08-17T05:34:15;101055.88;;;19.77;100.00
68994;BME280;56054;50.968;5.816;2023-08-17T05:37:22;101060.44;;;19.54;100.00
68994;BME280;56054;50.968;5.816;2023-08-17T05:40:32;101067.38;;;19.52;100.00
68994;BME280;56054;50.968;5.816;2023-08-17T05:43:39;101066.44;;;19.77;100.00
68994;BME280;56054;50.968;5.816;2023-08-17T05:46:47;101057.50;;;19.72;100.00
68994;BME280;56054;50.968;5.816;2023-08-17T05:49:54;101062.19;;;19.55;100.00
68994;BME280;56054;50.968;5.816;2023-08-17T05:53:01;101063.13;;;19.83;100.00
68994;BME280;56054;50.968;5.816;2023-08-17T05:56:08;101071.84;;;19.80;100.00
68994;BME280;56054;50.968;5.816;2023-08-17T05:59:15;101071.47;;;19.42;100.00
68994;BME280;56054;50.968;5.816;2023-08-17T06:02:22;101072.56;;;19.49;100.00
68994;BME280;56054;50.968;5.816;2023-08-17T06:05:29;101065.19;;;19.66;100.00
68994;BME280;56054;50.968;5.816;2023-08-17T06:08:36;101068.13;;;19.48;100.00
68994;BME280;56054;50.968;5.816;2023-08-17T06:11:43;101076.44;;;19.87;100.00
68994;BME280;56054;50.968;5.816;2023-08-17T06:14:50;101077.53;;;19.40;100.00
68994;BME280;56054;50.968;5.816;2023-08-17T06:17:57;101071.22;;;19.35;100.00
68994;BME280;56054;50.968;5.816;2023-08-17T06:21:04;101075.53;;;19.33;100.00
68994;BME280;56054;50.968;5.816;2023-08-17T06:24:11;101077.03;;;19.24;100.00
68994;BME280;56054;50.968;5.816;2023-08-17T06:27:18;101068.19;;;19.22;100.00
68994;BME280;56054;50.968;5.816;2023-08-17T06:30:25;101068.09;;;19.19;100.00
68994;BME280;56054;50.968;5.816;2023-08-17T06:33:32;101067.06;;;19.41;100.00
68994;BME280;56054;50.968;5.816;2023-08-17T06:36:39;101072.91;;;19.33;100.00
68994;BME280;56054;50.968;5.816;2023-08-17T06:39:46;101065.47;;;19.46;100.00
68994;BME280;56054;50.968;5.816;2023-08-17T06:42:53;101068.50;;;19.32;100.00
68994;BME280;56054;50.968;5.816;2023-08-17T06:46:00;101068.41;;;19.56;100.00
68994;BME280;56054;50.968;5.816;2023-08-17T06:49:07;101078.41;;;19.40;100.00
68994;BME280;56054;50.968;5.816;2023-08-17T06:52:14;101086.53;;;19.46;100.00
68994;BME280;56054;50.968;5.816;2023-08-17T06:55:22;101082.31;;;19.24;100.00
68994;BME280;56054;50.968;5.816;2023-08-17T06:58:29;101077.44;;;19.37;100.00
68994;BME280;56054;50.968;5.816;2023-08-17T07:01:36;101086.41;;;19.16;100.00
68994;BME280;56054;50.968;5.816;2023-08-17T07:04:44;101091.16;;;19.27;100.00
68994;BME280;56054;50.968;5.816;2023-08-17T07:07:52;101086.94;;;19.32;100.00
68994;BME280;56054;50.968;5.816;2023-08-17T07:11:00;101078.63;;;19.19;100.00
68994;BME280;56054;50.968;5.816;2023-08-17T07:14:10;101088.56;;;19.28;100.00
68994;BME280;56054;50.968;5.816;2023-08-17T07:17:20;101093.16;;;19.34;100.00
68994;BME280;56054;50.968;5.816;2023-08-17T07:20:29;101093.56;;;19.46;100.00
68994;BME280;56054;50.968;5.816;2023-08-17T07:23:36;101097.75;;;19.41;100.00
68994;BME280;56054;50.968;5.816;2023-08-17T07:26:43;101098.91;;;19.49;100.00
68994;BME280;56054;50.968;5.816;2023-08-17T07:29:50;101102.19;;;19.42;100.00
68994;BME280;56054;50.968;5.816;2023-08-17T07:32:57;101105.88;;;19.47;100.00
68994;BME280;56054;50.968;5.816;2023-08-17T07:36:04;101113.53;;;19.39;100.00
68994;BME280;56054;50.968;5.816;2023-08-17T07:39:11;101117.06;;;19.40;100.00
68994;BME280;56054;50.968;5.816;2023-08-17T07:42:18;101113.28;;;19.32;100.00
68994;BME280;56054;50.968;5.816;2023-08-17T07:45:32;101106.50;;;19.40;100.00
68994;BME280;56054;50.968;5.816;2023-08-17T07:52:03;101108.44;;;19.18;100.00
68994;BME280;56054;50.968;5.816;2023-08-17T07:55:10;101111.16;;;19.47;100.00
68994;BME280;56054;50.968;5.816;2023-08-17T07:58:17;101110.00;;;19.39;100.00
68994;BME280;56054;50.968;5.816;2023-08-17T08:01:24;101108.75;;;19.28;100.00
68994;BME280;56054;50.968;5.816;2023-08-17T08:04:31;101114.09;;;19.31;100.00
68994;BME280;56054;50.968;5.816;2023-08-17T08:07:38;101111.16;;;19.47;100.00
68994;BME280;56054;50.968;5.816;2023-08-17T08:10:46;101100.69;;;19.50;100.00
68994;BME280;56054;50.968;5.816;2023-08-17T08:13:54;101099.72;;;19.46;100.00
68994;BME280;56054;50.968;5.816;2023-08-17T08:17:01;101104.69;;;19.64;100.00
68994;BME280;56054;50.968;5.816;2023-08-17T08:20:08;101097.63;;;19.63;100.00
68994;BME280;56054;50.968;5.816;2023-08-17T08:23:15;101092.16;;;19.57;100.00
68994;BME280;56054;50.968;5.816;2023-08-17T08:26:22;101100.91;;;19.56;100.00
68994;BME280;56054;50.968;5.816;2023-08-17T08:29:29;101096.59;;;19.58;100.00
68994;BME280;56054;50.968;5.816;2023-08-17T08:32:36;101095.56;;;19.80;100.00
68994;BME280;56054;50.968;5.816;2023-08-17T08:35:45;101094.63;;;19.53;100.00
68994;BME280;56054;50.968;5.816;2023-08-17T08:38:52;101090.31;;;19.82;100.00
68994;BME280;56054;50.968;5.816;2023-08-17T08:41:59;101094.00;;;19.87;100.00
68994;BME280;56054;50.968;5.816;2023-08-17T08:45:07;101089.28;;;19.77;100.00
68994;BME280;56054;50.968;5.816;2023-08-17T08:48:14;101097.16;;;19.75;100.00
68994;BME280;56054;50.968;5.816;2023-08-17T08:51:27;101096.09;;;19.70;100.00
68994;BME280;56054;50.968;5.816;2023-08-17T08:54:36;101092.78;;;19.50;100.00
68994;BME280;56054;50.968;5.816;2023-08-17T08:57:46;101097.41;;;19.83;100.00
68994;BME280;56054;50.968;5.816;2023-08-17T09:00:52;101093.06;;;19.85;100.00
68994;BME280;56054;50.968;5.816;2023-08-17T09:03:59;101094.13;;;19.92;100.00
68994;BME280;56054;50.968;5.816;2023-08-17T09:07:07;101097.00;;;19.71;100.00
68994;BME280;56054;50.968;5.816;2023-08-17T09:10:15;101082.19;;;20.03;100.00
68994;BME280;56054;50.968;5.816;2023-08-17T09:13:22;101077.50;;;19.94;100.00
68994;BME280;56054;50.968;5.816;2023-08-17T09:16:29;101076.25;;;20.10;100.00
68994;BME280;56054;50.968;5.816;2023-08-17T09:19:37;101072.03;;;20.17;100.00
68994;BME280;56054;50.968;5.816;2023-08-17T09:22:44;101071.00;;;20.12;100.00
68994;BME280;56054;50.968;5.816;2023-08-17T09:25:51;101062.66;;;20.26;100.00
68994;BME280;56054;50.968;5.816;2023-08-17T09:28:59;101066.53;;;20.39;100.00
68994;BME280;56054;50.968;5.816;2023-08-17T09:32:06;101073.03;;;20.52;100.00
68994;BME280;56054;50.968;5.816;2023-08-17T09:35:13;101068.84;;;20.28;100.00
68994;BME280;56054;50.968;5.816;2023-08-17T09:38:21;101073.00;;;20.50;100.00
68994;BME280;56054;50.968;5.816;2023-08-17T09:41:28;101063.09;;;20.43;100.00
68994;BME280;56054;50.968;5.816;2023-08-17T09:44:34;101077.41;;;20.20;100.00
68994;BME280;56054;50.968;5.816;2023-08-17T09:47:42;101072.78;;;20.43;100.00
68994;BME280;56054;50.968;5.816;2023-08-17T09:50:49;101064.88;;;20.73;100.00
68994;BME280;56054;50.968;5.816;2023-08-17T09:53:57;101070.69;;;20.61;100.00
68994;BME280;56054;50.968;5.816;2023-08-17T09:57:04;101058.66;;;20.71;100.00
68994;BME280;56054;50.968;5.816;2023-08-17T10:00:12;101060.41;;;20.72;100.00
68994;BME280;56054;50.968;5.816;2023-08-17T10:03:19;101055.81;;;20.63;100.00
68994;BME280;56054;50.968;5.816;2023-08-17T10:06:28;101053.38;;;20.71;100.00
68994;BME280;56054;50.968;5.816;2023-08-17T10:09:40;101055.31;;;20.78;100.00
68994;BME280;56054;50.968;5.816;2023-08-17T10:12:56;101058.78;;;20.76;100.00
68994;BME280;56054;50.968;5.816;2023-08-17T10:16:19;101059.94;;;20.87;100.00
68994;BME280;56054;50.968;5.816;2023-08-17T10:19:37;101049.38;;;20.87;100.00
68994;BME280;56054;50.968;5.816;2023-08-17T10:23:08;101057.78;;;20.72;100.00
68994;BME280;56054;50.968;5.816;2023-08-17T10:26:19;101052.50;;;20.72;100.00
68994;BME280;56054;50.968;5.816;2023-08-17T10:29:27;101057.16;;;20.82;100.00
68994;BME280;56054;50.968;5.816;2023-08-17T10:32:35;101053.75;;;20.86;100.00
68994;BME280;56054;50.968;5.816;2023-08-17T10:35:42;101052.25;;;20.96;100.00
68994;BME280;56054;50.968;5.816;2023-08-17T10:39:18;101051.97;;;20.85;100.00
68994;BME280;56054;50.968;5.816;2023-08-17T10:42:35;101050.81;;;21.09;100.00
68994;BME280;56054;50.968;5.816;2023-08-17T10:45:42;101055.16;;;21.07;100.00
68994;BME280;56054;50.968;5.816;2023-08-17T10:48:51;101069.41;;;21.12;100.00
68994;BME280;56054;50.968;5.816;2023-08-17T10:52:08;101066.91;;;20.85;100.00
68994;BME280;56054;50.968;5.816;2023-08-17T10:55:16;101068.28;;;21.04;100.00
68994;BME280;56054;50.968;5.816;2023-08-17T10:58:22;101072.94;;;21.12;100.00
68994;BME280;56054;50.968;5.816;2023-08-17T11:01:36;101060.91;;;21.25;100.00
68994;BME280;56054;50.968;5.816;2023-08-17T11:04:52;101071.88;;;21.06;100.00
68994;BME280;56054;50.968;5.816;2023-08-17T11:07:59;101070.28;;;21.12;100.00
68994;BME280;56054;50.968;5.816;2023-08-17T11:11:13;101074.94;;;21.23;100.00
68994;BME280;56054;50.968;5.816;2023-08-17T11:14:20;101081.75;;;21.13;100.00
68994;BME280;56054;50.968;5.816;2023-08-17T11:17:27;101086.66;;;20.98;100.00
68994;BME280;56054;50.968;5.816;2023-08-17T11:20:35;101083.84;;;21.26;100.00
68994;BME280;56054;50.968;5.816;2023-08-17T11:23:42;101080.16;;;21.20;100.00
68994;BME280;56054;50.968;5.816;2023-08-17T11:26:50;101084.06;;;21.01;100.00
68994;BME280;56054;50.968;5.816;2023-08-17T11:29:57;101089.44;;;21.04;100.00
68994;BME280;56054;50.968;5.816;2023-08-17T11:33:05;101086.16;;;21.14;100.00
68994;BME280;56054;50.968;5.816;2023-08-17T11:36:14;101093.81;;;21.36;100.00
68994;BME280;56054;50.968;5.816;2023-08-17T11:39:20;101083.22;;;21.02;100.00
68994;BME280;56054;50.968;5.816;2023-08-17T11:42:27;101083.25;;;21.03;100.00
68994;BME280;56054;50.968;5.816;2023-08-17T11:45:34;101087.91;;;21.12;100.00
68994;BME280;56054;50.968;5.816;2023-08-17T11:48:41;101089.41;;;21.02;100.00
68994;BME280;56054;50.968;5.816;2023-08-17T11:51:48;101085.22;;;21.10;100.00
68994;BME280;56054;50.968;5.816;2023-08-17T11:54:59;101082.63;;;21.12;100.00
68994;BME280;56054;50.968;5.816;2023-08-17T11:58:06;101087.28;;;21.24;100.00
68994;BME280;56054;50.968;5.816;2023-08-17T12:01:15;101082.34;;;21.37;100.00
68994;BME280;56054;50.968;5.816;2023-08-17T12:04:22;101088.03;;;21.18;100.00
68994;BME280;56054;50.968;5.816;2023-08-17T12:07:29;101082.06;;;21.25;100.00
68994;BME280;56054;50.968;5.816;2023-08-17T12:10:37;101073.75;;;21.10;100.00
68994;BME280;56054;50.968;5.816;2023-08-17T12:13:49;101078.25;;;21.14;100.00
68994;BME280;56054;50.968;5.816;2023-08-17T12:16:56;101079.38;;;21.24;100.00
68994;BME280;56054;50.968;5.816;2023-08-17T12:20:04;101072.56;;;21.33;100.00
68994;BME280;56054;50.968;5.816;2023-08-17T12:23:12;101079.03;;;21.10;100.00
68994;BME280;56054;50.968;5.816;2023-08-17T12:26:20;101066.94;;;21.20;100.00
68994;BME280;56054;50.968;5.816;2023-08-17T12:29:29;101063.72;;;21.31;100.00
68994;BME280;56054;50.968;5.816;2023-08-17T12:32:37;101065.56;;;21.35;100.00
68994;BME280;56054;50.968;5.816;2023-08-17T12:35:43;101074.19;;;21.27;100.00
68994;BME280;56054;50.968;5.816;2023-08-17T12:38:50;101070.47;;;21.20;100.00
68994;BME280;56054;50.968;5.816;2023-08-17T12:41:57;101072.41;;;21.27;100.00
68994;BME280;56054;50.968;5.816;2023-08-17T12:45:06;101068.22;;;21.35;100.00
68994;BME280;56054;50.968;5.816;2023-08-17T12:48:12;101062.84;;;21.32;100.00
68994;BME280;56054;50.968;5.816;2023-08-17T12:51:19;101064.53;;;21.29;100.00
68994;BME280;56054;50.968;5.816;2023-08-17T12:54:26;101066.16;;;21.24;100.00
68994;BME280;56054;50.968;5.816;2023-08-17T12:57:33;101053.59;;;21.50;100.00
68994;BME280;56054;50.968;5.816;2023-08-17T13:00:40;101053.66;;;21.51;100.00
68994;BME280;56054;50.968;5.816;2023-08-17T13:03:47;101057.47;;;21.64;100.00
68994;BME280;56054;50.968;5.816;2023-08-17T13:06:54;101054.94;;;21.69;100.00
68994;BME280;56054;50.968;5.816;2023-08-17T13:10:01;101046.59;;;21.52;100.00
68994;BME280;56054;50.968;5.816;2023-08-17T13:13:08;101048.47;;;21.56;100.00
68994;BME280;56054;50.968;5.816;2023-08-17T13:16:15;101061.44;;;21.45;100.00
68994;BME280;56054;50.968;5.816;2023-08-17T13:19:22;101052.59;;;21.45;100.00
68994;BME280;56054;50.968;5.816;2023-08-17T13:22:29;101049.91;;;21.42;100.00
68994;BME280;56054;50.968;5.816;2023-08-17T13:25:37;101043.84;;;21.47;100.00
68994;BME280;56054;50.968;5.816;2023-08-17T13:28:43;101048.25;;;21.86;100.00
68994;BME280;56054;50.968;5.816;2023-08-17T13:31:50;101039.94;;;21.69;100.00
68994;BME280;56054;50.968;5.816;2023-08-17T13:34:57;101046.19;;;21.71;100.00
68994;BME280;56054;50.968;5.816;2023-08-17T13:38:05;101051.75;;;21.46;100.00
68994;BME280;56054;50.968;5.816;2023-08-17T13:41:12;101046.81;;;21.25;100.00
68994;BME280;56054;50.968;5.816;2023-08-17T13:44:20;101042.53;;;21.66;100.00
68994;BME280;56054;50.968;5.816;2023-08-17T13:47:35;101047.09;;;21.73;100.00
68994;BME280;56054;50.968;5.816;2023-08-17T13:50:41;101031.09;;;21.67;100.00
68994;BME280;56054;50.968;5.816;2023-08-17T13:53:48;101030.97;;;21.63;100.00
68994;BME280;56054;50.968;5.816;2023-08-17T13:56:55;101035.25;;;21.95;100.00
68994;BME280;56054;50.968;5.816;2023-08-17T14:00:03;101031.44;;;21.83;100.00
68994;BME280;56054;50.968;5.816;2023-08-17T14:03:10;101019.72;;;21.71;100.00
68994;BME280;56054;50.968;5.816;2023-08-17T14:06:17;101016.88;;;21.62;100.00
68994;BME280;56054;50.968;5.816;2023-08-17T14:09:24;101017.50;;;21.90;100.00
68994;BME280;56054;50.968;5.816;2023-08-17T14:12:31;101019.72;;;22.12;100.00
68994;BME280;56054;50.968;5.816;2023-08-17T14:15:38;101009.25;;;22.18;100.00
68994;BME280;56054;50.968;5.816;2023-08-17T14:18:45;101016.25;;;22.16;100.00
68994;BME280;56054;50.968;5.816;2023-08-17T14:21:52;101007.47;;;22.19;100.00
68994;BME280;56054;50.968;5.816;2023-08-17T14:24:59;101009.06;;;22.09;100.00
68994;BME280;56054;50.968;5.816;2023-08-17T14:28:07;100994.03;;;22.08;100.00
68994;BME280;56054;50.968;5.816;2023-08-17T14:31:13;100994.78;;;22.01;100.00
68994;BME280;56054;50.968;5.816;2023-08-17T14:34:20;100993.84;;;21.97;100.00
68994;BME280;56054;50.968;5.816;2023-08-17T14:37:27;100987.72;;;22.01;100.00
68994;BME280;56054;50.968;5.816;2023-08-17T14:40:35;100987.16;;;22.16;100.00
68994;BME280;56054;50.968;5.816;2023-08-17T14:43:46;100979.16;;;22.13;100.00
68994;BME280;56054;50.968;5.816;2023-08-17T14:46:54;100971.38;;;22.21;100.00
68994;BME280;56054;50.968;5.816;2023-08-17T14:50:00;100979.28;;;22.19;100.00
68994;BME280;56054;50.968;5.816;2023-08-17T14:53:09;100975.28;;;22.40;99.59
68994;BME280;56054;50.968;5.816;2023-08-17T14:56:18;100984.09;;;22.39;100.00
68994;BME280;56054;50.968;5.816;2023-08-17T14:59:26;100968.69;;;22.19;100.00
68994;BME280;56054;50.968;5.816;2023-08-17T15:02:34;100975.38;;;22.00;100.00
68994;BME280;56054;50.968;5.816;2023-08-17T15:05:41;100971.09;;;22.07;100.00
68994;BME280;56054;50.968;5.816;2023-08-17T15:08:50;100962.28;;;22.08;100.00
68994;BME280;56054;50.968;5.816;2023-08-17T15:12:05;100965.13;;;22.19;100.00
68994;BME280;56054;50.968;5.816;2023-08-17T15:15:13;100968.00;;;22.28;100.00
68994;BME280;56054;50.968;5.816;2023-08-17T15:18:19;100963.81;;;22.41;100.00
68994;BME280;56054;50.968;5.816;2023-08-17T15:21:27;100960.84;;;22.22;100.00
68994;BME280;56054;50.968;5.816;2023-08-17T15:24:34;100956.75;;;22.40;100.00
68994;BME280;56054;50.968;5.816;2023-08-17T15:27:40;100965.84;;;22.54;99.40
68994;BME280;56054;50.968;5.816;2023-08-17T15:30:50;100956.94;;;22.49;100.00
68994;BME280;56054;50.968;5.816;2023-08-17T15:34:06;100955.97;;;22.46;100.00
68994;BME280;56054;50.968;5.816;2023-08-17T15:37:12;100957.50;;;22.31;100.00
68994;BME280;56054;50.968;5.816;2023-08-17T15:40:19;100948.84;;;22.43;100.00
68994;BME280;56054;50.968;5.816;2023-08-17T15:43:26;100947.19;;;22.48;100.00
68994;BME280;56054;50.968;5.816;2023-08-17T15:46:34;100954.44;;;22.58;99.47
68994;BME280;56054;50.968;5.816;2023-08-17T15:49:40;100953.41;;;22.50;99.79
68994;BME280;56054;50.968;5.816;2023-08-17T15:52:47;100947.94;;;22.41;99.94
68994;BME280;56054;50.968;5.816;2023-08-17T15:55:54;100945.31;;;22.42;98.79
68994;BME280;56054;50.968;5.816;2023-08-17T15:59:01;100934.16;;;22.60;98.78
68994;BME280;56054;50.968;5.816;2023-08-17T16:02:09;100932.22;;;22.50;99.85
68994;BME280;56054;50.968;5.816;2023-08-17T16:05:16;100924.28;;;22.49;99.76
68994;BME280;56054;50.968;5.816;2023-08-17T16:08:22;100929.66;;;22.53;99.50
68994;BME280;56054;50.968;5.816;2023-08-17T16:11:30;100931.50;;;22.60;99.19
68994;BME280;56054;50.968;5.816;2023-08-17T16:14:36;100919.84;;;22.49;100.00
68994;BME280;56054;50.968;5.816;2023-08-17T16:17:44;100919.84;;;22.49;100.00